createdAt,value
2023-04-15T00:00:57.797Z,4.63
2023-04-15T00:03:25.178Z,5.07
2023-04-15T00:05:52.284Z,5.72
2023-04-15T00:08:19.634Z,5.75
2023-04-15T00:10:46.871Z,6.10
2023-04-15T00:13:13.765Z,5.05
2023-04-15T00:15:41.095Z,5.88
2023-04-15T00:18:08.368Z,6.10
2023-04-15T00:20:35.908Z,5.35
2023-04-15T00:23:04.399Z,5.90
2023-04-15T00:25:31.662Z,5.80
2023-04-15T00:27:58.579Z,5.43
2023-04-15T00:30:26.758Z,5.70
2023-04-15T00:32:53.755Z,6.13
2023-04-15T00:35:22.977Z,5.90
2023-04-15T00:37:51.598Z,6.10
2023-04-15T00:40:21.217Z,5.85
2023-04-15T00:42:48.343Z,5.68
2023-04-15T00:45:15.872Z,5.38
2023-04-15T00:47:44.521Z,5.90
2023-04-15T00:50:12.952Z,6.25
2023-04-15T00:52:41.043Z,5.80
2023-04-15T00:55:08.994Z,6.13
2023-04-15T00:57:36.683Z,6.13
2023-04-15T01:00:05.857Z,5.78
2023-04-15T01:02:33.708Z,7.05
2023-04-15T01:05:02.888Z,5.88
2023-04-15T01:07:29.807Z,6.15
2023-04-15T01:09:57.164Z,6.15
2023-04-15T01:12:26.499Z,6.78
2023-04-15T01:14:57.395Z,5.78
2023-04-15T01:17:25.571Z,6.40
2023-04-15T01:19:53.071Z,6.85
2023-04-15T01:22:19.899Z,6.30
2023-04-15T01:25:02.160Z,7.07
2023-04-15T01:27:31.459Z,6.47
2023-04-15T01:29:58.708Z,7.38
2023-04-15T01:32:25.682Z,6.53
2023-04-15T01:34:52.610Z,7.55
2023-04-15T01:39:51.764Z,6.57
2023-04-15T01:42:18.699Z,7.93
2023-04-15T01:44:45.558Z,6.53
2023-04-15T01:47:12.728Z,6.55
2023-04-15T01:49:39.543Z,7.38
2023-04-15T01:52:06.553Z,6.38
2023-04-15T01:54:33.716Z,7.60
2023-04-15T01:57:00.532Z,7.57
2023-04-15T01:59:27.625Z,7.63
2023-04-15T02:01:55.380Z,7.15
2023-04-15T02:04:22.273Z,7.10
2023-04-15T02:06:49.145Z,7.40
2023-04-15T02:09:15.988Z,7.20
2023-04-15T02:11:46.205Z,7.43
2023-04-15T02:14:13.172Z,7.55
2023-04-15T02:16:40.041Z,7.43
2023-04-15T02:19:08.103Z,8.10
2023-04-15T02:21:37.585Z,7.65
2023-04-15T02:24:04.722Z,8.25
2023-04-15T02:26:34.421Z,8.10
2023-04-15T02:29:01.486Z,8.30
2023-04-15T02:31:28.519Z,8.48
2023-04-15T02:33:55.399Z,9.38
2023-04-15T02:36:22.239Z,8.80
2023-04-15T02:38:49.042Z,9.70
2023-04-15T02:41:16.864Z,9.63
2023-04-15T02:43:45.589Z,8.90
2023-04-15T02:46:15.049Z,9.45
2023-04-15T02:48:42.106Z,8.98
2023-04-15T02:51:23.014Z,8.85
2023-04-15T02:53:50.217Z,9.32
2023-04-15T02:56:17.538Z,10.07
2023-04-15T02:58:45.866Z,10.05
2023-04-15T03:01:13.106Z,10.02
2023-04-15T03:03:41.606Z,10.43
2023-04-15T03:06:09.247Z,10.75
2023-04-15T03:08:37.274Z,10.32
2023-04-15T03:11:04.942Z,10.05
2023-04-15T03:13:33.106Z,10.43
2023-04-15T03:16:05.920Z,10.43
2023-04-15T03:18:33.118Z,10.85
2023-04-15T03:21:03.140Z,10.75
2023-04-15T03:23:33.399Z,10.48
2023-04-15T03:26:04.808Z,11.35
2023-04-15T03:28:33.649Z,11.18
2023-04-15T03:31:01.622Z,10.68
2023-04-15T03:33:28.535Z,10.35
2023-04-15T03:35:55.406Z,10.25
2023-04-15T03:38:22.226Z,10.73
2023-04-15T03:40:49.094Z,13.07
2023-04-15T03:43:15.930Z,12.50
2023-04-15T03:45:42.771Z,10.80
2023-04-15T03:48:17.397Z,11.93
2023-04-15T03:50:45.236Z,11.23
2023-04-15T03:53:12.164Z,11.27
2023-04-15T03:55:38.956Z,11.85
2023-04-15T03:58:05.828Z,11.35
2023-04-15T04:00:32.659Z,12.90
2023-04-15T04:02:59.607Z,13.32
2023-04-15T04:05:26.540Z,12.75
2023-04-15T04:07:53.368Z,13.75
2023-04-15T04:10:20.310Z,13.00
2023-04-15T04:12:47.240Z,15.10
2023-04-15T04:15:14.087Z,14.50
2023-04-15T04:17:41.058Z,15.40
2023-04-15T04:20:08.563Z,14.77
2023-04-15T04:22:41.967Z,14.10
2023-04-15T04:25:10.371Z,15.75
2023-04-15T04:27:37.406Z,16.73
2023-04-15T04:30:05.273Z,15.20
2023-04-15T04:32:32.513Z,16.80
2023-04-15T04:34:59.391Z,17.50
2023-04-15T04:37:26.248Z,16.38
2023-04-15T04:39:53.122Z,16.10
2023-04-15T04:42:20.004Z,15.50
2023-04-15T04:44:47.411Z,16.90
2023-04-15T04:47:14.277Z,15.45
2023-04-15T04:49:41.471Z,16.92
2023-04-15T04:52:08.358Z,16.73
2023-04-15T04:54:35.217Z,16.45
2023-04-15T04:57:02.510Z,16.00
2023-04-15T04:59:29.407Z,17.13
2023-04-15T05:01:56.774Z,16.52
2023-04-15T05:04:23.673Z,15.20
2023-04-15T05:06:50.645Z,14.98
2023-04-15T05:09:17.569Z,15.10
2023-04-15T05:11:44.355Z,14.32
2023-04-15T05:14:11.287Z,13.75
2023-04-15T05:16:38.099Z,15.13
2023-04-15T05:19:04.986Z,13.80
2023-04-15T05:21:32.351Z,14.35
2023-04-15T05:23:59.194Z,14.32
2023-04-15T05:26:27.706Z,13.27
2023-04-15T05:28:54.489Z,13.32
2023-04-15T05:31:21.356Z,13.68
2023-04-15T05:33:48.228Z,14.00
2023-04-15T05:36:15.044Z,12.07
2023-04-15T05:38:42.298Z,12.40
2023-04-15T05:41:09.541Z,12.82
2023-04-15T05:43:36.418Z,11.27
2023-04-15T05:46:03.334Z,11.65
2023-04-15T05:48:30.210Z,10.82
2023-04-15T05:50:57.088Z,11.43
2023-04-15T05:53:24.017Z,10.00
2023-04-15T05:55:51.061Z,10.45
2023-04-15T05:58:17.997Z,11.20
2023-04-15T06:00:44.945Z,9.60
2023-04-15T06:03:12.118Z,9.82
2023-04-15T06:05:39.111Z,9.35
2023-04-15T06:08:06.236Z,9.80
2023-04-15T06:10:36.826Z,9.18
2023-04-15T06:13:04.511Z,8.70
2023-04-15T06:15:31.969Z,9.30
2023-04-15T06:17:58.893Z,9.38
2023-04-15T06:20:25.999Z,9.90
2023-04-15T06:22:52.955Z,7.82
2023-04-15T06:25:20.149Z,8.80
2023-04-15T06:27:47.097Z,8.55
2023-04-15T06:30:14.020Z,8.65
2023-04-15T06:32:41.246Z,8.35
2023-04-15T06:35:08.559Z,8.43
2023-04-15T06:37:35.685Z,7.53
2023-04-15T06:40:02.554Z,7.50
2023-04-15T06:42:29.632Z,8.07
2023-04-15T06:44:56.508Z,7.75
2023-04-15T06:47:23.461Z,6.93
2023-04-15T06:49:50.603Z,7.88
2023-04-15T06:52:17.816Z,7.25
2023-04-15T06:54:44.738Z,7.68
2023-04-15T06:57:11.713Z,7.82
2023-04-15T06:59:38.639Z,7.57
2023-04-15T07:02:05.579Z,7.43
2023-04-15T07:04:33.165Z,7.18
2023-04-15T07:07:02.669Z,7.50
2023-04-15T07:09:29.990Z,7.32
2023-04-15T07:11:56.840Z,6.93
2023-04-15T07:14:23.652Z,6.38
2023-04-15T07:16:50.849Z,5.75
2023-04-15T07:19:17.672Z,6.57
2023-04-15T07:21:44.482Z,6.00
2023-04-15T07:24:11.335Z,5.93
2023-04-15T07:26:38.210Z,5.93
2023-04-15T07:29:04.981Z,5.95
2023-04-15T07:31:31.912Z,5.82
2023-04-15T07:33:58.858Z,6.07
2023-04-15T07:36:25.837Z,5.47
2023-04-15T07:38:53.025Z,6.18
2023-04-15T07:41:20.691Z,5.57
2023-04-15T07:43:48.986Z,5.38
2023-04-15T07:46:16.402Z,5.80
2023-04-15T07:48:43.486Z,5.03
2023-04-15T07:51:11.069Z,5.05
2023-04-15T07:53:38.351Z,4.88
2023-04-15T07:56:05.869Z,5.25
2023-04-15T07:58:32.766Z,4.60
2023-04-15T08:00:59.677Z,4.65
2023-04-15T08:03:26.986Z,4.65
2023-04-15T08:05:54.819Z,5.07
2023-04-15T08:08:22.459Z,5.15
2023-04-15T08:10:52.066Z,4.90
2023-04-15T08:13:19.842Z,4.85
2023-04-15T08:15:46.943Z,4.97
2023-04-15T08:18:13.902Z,4.70
2023-04-15T08:20:40.978Z,4.85
2023-04-15T08:23:08.012Z,5.30
2023-04-15T08:25:34.843Z,4.68
2023-04-15T08:28:05.567Z,4.78
2023-04-15T08:30:32.426Z,3.95
2023-04-15T08:32:59.226Z,4.80
2023-04-15T08:35:26.198Z,4.43
2023-04-15T08:37:53.015Z,4.15
2023-04-15T08:40:22.054Z,4.38
2023-04-15T08:42:53.168Z,4.40
2023-04-15T08:45:21.790Z,4.53
2023-04-15T08:47:55.399Z,5.35
2023-04-15T08:50:24.025Z,4.85
2023-04-15T08:52:55.401Z,4.20
2023-04-15T08:55:22.993Z,4.53
2023-04-15T08:57:51.005Z,4.07
2023-04-15T09:00:18.494Z,4.50
2023-04-15T09:02:45.784Z,4.38
2023-04-15T09:05:13.075Z,4.43
2023-04-15T09:07:39.872Z,4.13
2023-04-15T09:10:07.545Z,5.25
2023-04-15T09:12:37.808Z,4.32
2023-04-15T09:15:05.090Z,3.97
2023-04-15T09:17:33.868Z,4.10
2023-04-15T09:20:13.758Z,4.88
2023-04-15T09:22:41.915Z,3.88
2023-04-15T09:25:30.263Z,4.30
2023-04-15T09:28:01.862Z,3.80
2023-04-15T09:30:29.715Z,3.63
2023-04-15T09:32:58.629Z,3.95
2023-04-15T09:35:26.821Z,3.97
2023-04-15T09:38:02.031Z,3.60
2023-04-15T09:40:33.961Z,3.50
2023-04-15T09:43:05.386Z,3.88
2023-04-15T09:45:34.277Z,4.53
2023-04-15T09:48:16.197Z,3.92
2023-04-15T09:50:44.217Z,3.65
2023-04-15T09:53:12.628Z,3.90
2023-04-15T09:55:39.631Z,3.45
2023-04-15T09:58:17.646Z,3.42
2023-04-15T10:00:44.573Z,3.58
2023-04-15T10:03:12.139Z,3.20
2023-04-15T10:05:39.867Z,3.05
2023-04-15T10:08:09.614Z,3.00
2023-04-15T10:10:36.860Z,3.63
2023-04-15T10:13:03.937Z,3.25
2023-04-15T10:15:32.667Z,3.13
2023-04-15T10:18:01.571Z,2.97
2023-04-15T10:20:29.939Z,2.53
2023-04-15T10:22:58.065Z,3.65
2023-04-15T10:25:27.242Z,3.10
2023-04-15T10:27:54.684Z,3.05
2023-04-15T10:30:22.769Z,3.10
2023-04-15T10:32:50.648Z,3.45
2023-04-15T10:35:18.879Z,3.45
2023-04-15T10:37:45.931Z,2.92
2023-04-15T10:40:28.301Z,3.47
2023-04-15T10:45:27.459Z,3.38
2023-04-15T10:47:59.343Z,3.08
2023-04-15T10:50:28.442Z,3.08
2023-04-15T10:52:56.691Z,3.13
2023-04-15T10:55:31.725Z,2.75
2023-04-15T10:58:01.662Z,2.85
2023-04-15T11:02:59.611Z,3.58
2023-04-15T11:05:41.791Z,3.88
2023-04-15T11:08:12.761Z,3.50
2023-04-15T11:10:39.536Z,3.30
2023-04-15T11:13:17.698Z,3.10
2023-04-15T11:15:48.224Z,2.97
2023-04-15T11:18:18.168Z,2.55
2023-04-15T11:20:57.753Z,4.07
2023-04-15T11:23:47.117Z,3.30
2023-04-15T11:26:15.045Z,2.95
2023-04-15T11:28:45.115Z,3.55
2023-04-15T11:33:55.751Z,2.83
2023-04-15T11:36:27.473Z,3.15
2023-04-15T11:38:54.675Z,3.63
2023-04-15T11:41:23.098Z,3.47
2023-04-15T11:43:51.020Z,3.53
2023-04-15T11:46:18.346Z,3.47
2023-04-15T11:48:46.846Z,3.10
2023-04-15T11:51:14.667Z,3.55
2023-04-15T11:53:43.904Z,4.07
2023-04-15T11:56:17.106Z,3.22
2023-04-15T11:58:44.926Z,3.45
2023-04-15T12:01:12.083Z,4.07
2023-04-15T12:03:44.166Z,3.55
2023-04-15T12:06:23.991Z,3.10
2023-04-15T12:09:09.484Z,3.95
2023-04-15T12:11:53.956Z,3.83
2023-04-15T12:14:23.008Z,3.70
2023-04-15T12:16:52.570Z,3.72
2023-04-15T12:19:39.353Z,3.25
2023-04-15T12:22:11.072Z,4.38
2023-04-15T12:24:38.801Z,5.72
2023-04-15T12:27:07.809Z,4.40
2023-04-15T12:29:36.731Z,3.88
2023-04-15T12:32:17.311Z,3.53
2023-04-15T12:34:44.834Z,3.00
2023-04-15T12:37:13.352Z,3.45
2023-04-15T12:39:43.139Z,2.92
2023-04-15T12:42:11.015Z,3.08
2023-04-15T12:44:39.362Z,3.45
2023-04-15T12:47:07.920Z,3.40
2023-04-15T12:49:35.294Z,3.13
2023-04-15T12:52:02.880Z,3.28
2023-04-15T12:54:30.789Z,3.15
2023-04-15T12:56:58.480Z,4.05
2023-04-15T12:59:25.501Z,3.53
2023-04-15T13:01:54.157Z,3.95
2023-04-15T13:04:22.420Z,4.18
2023-04-15T13:06:49.793Z,3.72
2023-04-15T13:09:16.762Z,5.00
2023-04-15T13:11:44.024Z,4.13
2023-04-15T13:14:14.049Z,4.30
2023-04-15T13:16:41.740Z,3.72
2023-04-15T13:19:08.978Z,3.88
2023-04-15T13:21:36.504Z,3.72
2023-04-15T13:24:04.853Z,5.57
2023-04-15T13:26:32.312Z,4.70
2023-04-15T13:28:59.736Z,5.13
2023-04-15T13:31:27.418Z,4.68
2023-04-15T13:33:54.393Z,4.63
2023-04-15T13:36:21.330Z,4.25
2023-04-15T13:38:50.966Z,4.60
2023-04-15T13:41:18.186Z,5.78
2023-04-15T13:43:45.004Z,4.45
2023-04-15T13:46:11.880Z,4.53
2023-04-15T13:48:38.816Z,4.07
2023-04-15T13:51:05.726Z,4.55
2023-04-15T13:53:38.021Z,3.80
2023-04-15T13:56:10.025Z,4.53
2023-04-15T13:58:38.346Z,4.25
2023-04-15T14:01:07.094Z,4.47
2023-04-15T14:03:38.336Z,3.88
2023-04-15T14:06:06.345Z,5.40
2023-04-15T14:08:33.951Z,5.03
2023-04-15T14:11:00.985Z,4.40
2023-04-15T14:13:28.089Z,4.22
2023-04-15T14:15:54.989Z,4.05
2023-04-15T14:18:21.866Z,3.53
2023-04-15T14:20:48.681Z,4.05
2023-04-15T14:23:15.608Z,5.10
2023-04-15T14:25:42.529Z,4.75
2023-04-15T14:28:09.428Z,5.03
2023-04-15T14:30:36.410Z,5.15
2023-04-15T14:33:04.193Z,5.38
2023-04-15T14:35:31.655Z,4.88
2023-04-15T14:37:58.570Z,4.15
2023-04-15T14:40:25.496Z,4.97
2023-04-15T14:42:52.443Z,4.70
2023-04-15T14:45:19.345Z,5.10
2023-04-15T14:47:46.926Z,5.22
2023-04-15T14:50:13.788Z,4.90
2023-04-15T14:52:40.817Z,5.75
2023-04-15T14:55:12.178Z,5.50
2023-04-15T14:57:40.159Z,6.07
2023-04-15T15:00:08.405Z,5.45
2023-04-15T15:02:39.642Z,6.32
2023-04-15T15:05:09.056Z,6.53
2023-04-15T15:07:37.447Z,6.95
2023-04-15T15:10:08.237Z,7.32
2023-04-15T15:12:35.198Z,6.85
2023-04-15T15:15:12.397Z,7.70
2023-04-15T15:17:43.164Z,7.78
2023-04-15T15:20:10.693Z,7.38
2023-04-15T15:22:37.612Z,8.25
2023-04-15T15:25:05.400Z,8.48
2023-04-15T15:27:32.305Z,7.07
2023-04-15T15:29:59.418Z,10.13
2023-04-15T15:32:26.358Z,8.52
2023-04-15T15:34:53.678Z,8.68
2023-04-15T15:37:20.572Z,9.27
2023-04-15T15:39:47.438Z,11.35
2023-04-15T15:42:14.295Z,10.45
2023-04-15T15:44:41.083Z,9.52
2023-04-15T15:47:08.391Z,10.60
2023-04-15T15:49:35.956Z,12.13
2023-04-15T15:52:03.131Z,12.80
2023-04-15T15:54:30.066Z,10.18
2023-04-15T15:56:57.709Z,13.57
2023-04-15T15:59:25.760Z,12.48
2023-04-15T16:01:52.961Z,11.23
2023-04-15T16:04:20.073Z,11.70
2023-04-15T16:06:47.246Z,12.77
2023-04-15T16:09:14.307Z,13.27
2023-04-15T16:11:41.791Z,14.30
2023-04-15T16:14:08.719Z,14.05
2023-04-15T16:16:35.776Z,14.18
2023-04-15T16:19:02.816Z,13.23
2023-04-15T16:21:29.914Z,12.95
2023-04-15T16:23:56.836Z,12.20
2023-04-15T16:26:24.067Z,11.95
2023-04-15T16:28:50.881Z,13.65
2023-04-15T16:31:17.727Z,13.40
2023-04-15T16:33:44.683Z,15.05
2023-04-15T16:36:11.465Z,15.25
2023-04-15T16:38:38.331Z,16.10
2023-04-15T16:41:05.264Z,16.40
2023-04-15T16:43:32.122Z,15.27
2023-04-15T16:45:58.970Z,15.73
2023-04-15T16:48:26.412Z,14.65
2023-04-15T16:50:53.247Z,15.73
2023-04-15T16:53:20.074Z,15.63
2023-04-15T16:55:46.897Z,14.63
2023-04-15T16:58:13.782Z,15.57
2023-04-15T17:00:40.708Z,14.05
2023-04-15T17:03:07.709Z,15.88
2023-04-15T17:05:34.751Z,15.93
2023-04-15T17:08:01.731Z,17.67
2023-04-15T17:10:28.592Z,15.30
2023-04-15T17:12:58.533Z,16.25
2023-04-15T17:15:26.211Z,18.25
2023-04-15T17:17:53.262Z,16.35
2023-04-15T17:20:20.354Z,16.17
2023-04-15T17:22:48.752Z,17.85
2023-04-15T17:25:15.616Z,15.63
2023-04-15T17:27:42.529Z,15.70
2023-04-15T17:30:09.953Z,17.63
2023-04-15T17:32:40.320Z,18.20
2023-04-15T17:35:07.956Z,16.90
2023-04-15T17:37:35.170Z,18.25
2023-04-15T17:40:02.656Z,17.23
2023-04-15T17:42:29.474Z,18.33
2023-04-15T17:44:56.306Z,18.00
2023-04-15T17:47:23.229Z,19.42
2023-04-15T17:49:50.073Z,16.50
2023-04-15T17:52:17.048Z,16.55
2023-04-15T17:54:44.018Z,15.27
2023-04-15T17:57:10.965Z,17.50
2023-04-15T17:59:38.153Z,17.73
2023-04-15T18:02:05.064Z,17.42
2023-04-15T18:04:32.279Z,18.45
2023-04-15T18:06:59.345Z,18.80
2023-04-15T18:09:27.465Z,18.52
2023-04-15T18:11:54.311Z,18.60
2023-04-15T18:14:33.739Z,17.02
2023-04-15T18:17:02.775Z,18.73
2023-04-15T18:19:30.541Z,20.85
2023-04-15T18:21:58.176Z,19.02
2023-04-15T18:24:25.078Z,17.98
2023-04-15T18:26:52.911Z,18.10
2023-04-15T18:29:19.825Z,19.70
2023-04-15T18:31:46.676Z,18.05
2023-04-15T18:34:13.596Z,20.23
2023-04-15T18:36:40.722Z,20.40
2023-04-15T18:39:07.960Z,20.75
2023-04-15T18:41:35.148Z,19.50
2023-04-15T18:44:01.978Z,20.77
2023-04-15T18:46:29.196Z,19.73
2023-04-15T18:48:56.034Z,19.80
2023-04-15T18:51:23.010Z,19.77
2023-04-15T18:53:49.934Z,19.23
2023-04-15T18:56:16.781Z,21.00
2023-04-15T18:59:25.004Z,20.23
2023-04-15T19:01:32.376Z,20.58
2023-04-15T19:03:59.723Z,18.70
2023-04-15T19:06:27.418Z,20.60
2023-04-15T19:08:54.921Z,21.48
2023-04-15T19:11:21.983Z,21.75
2023-04-15T19:13:49.258Z,20.65
2023-04-15T19:16:16.417Z,22.27
2023-04-15T19:18:43.510Z,20.20
2023-04-15T19:21:12.715Z,22.35
2023-04-15T19:23:39.933Z,21.23
2023-04-15T19:26:08.448Z,20.30
2023-04-15T19:28:35.711Z,19.35
2023-04-15T19:31:03.000Z,20.95
2023-04-15T19:33:31.675Z,19.00
2023-04-15T19:36:02.096Z,20.67
2023-04-15T19:38:29.414Z,21.95
2023-04-15T19:40:56.799Z,21.48
2023-04-15T19:43:24.075Z,21.52
2023-04-15T19:45:52.543Z,23.05
2023-04-15T19:48:19.877Z,20.95
2023-04-15T19:50:46.821Z,20.92
2023-04-15T19:53:14.002Z,21.08
2023-04-15T19:55:41.145Z,21.40
2023-04-15T19:58:08.041Z,21.02
2023-04-15T20:00:35.001Z,22.33
2023-04-15T20:03:02.280Z,19.98
2023-04-15T20:05:29.479Z,21.05
2023-04-15T20:07:58.623Z,20.52
2023-04-15T20:10:26.686Z,21.70
2023-04-15T20:12:53.626Z,22.13
2023-04-15T20:15:21.743Z,19.40
2023-04-15T20:17:48.620Z,21.17
2023-04-15T20:20:16.336Z,21.02
2023-04-15T20:22:43.281Z,19.25
2023-04-15T20:25:10.328Z,20.25
2023-04-15T20:27:37.232Z,22.00
2023-04-15T20:30:07.638Z,21.42
2023-04-15T20:32:36.300Z,21.85
2023-04-15T20:35:04.587Z,20.73
2023-04-15T20:37:33.779Z,22.88
2023-04-15T20:40:01.756Z,21.02
2023-04-15T20:42:32.844Z,23.08
2023-04-15T20:44:59.868Z,22.88
2023-04-15T20:47:26.899Z,22.38
2023-04-15T20:49:54.331Z,20.85
2023-04-15T20:52:21.359Z,22.27
2023-04-15T20:54:48.258Z,23.13
2023-04-15T20:57:15.088Z,22.13
2023-04-15T20:59:41.952Z,21.10
2023-04-15T21:02:08.944Z,21.15
2023-04-15T21:04:36.210Z,24.10
2023-04-15T21:07:03.003Z,21.77
2023-04-15T21:09:29.961Z,22.35
2023-04-15T21:12:01.608Z,21.17
2023-04-15T21:14:29.308Z,21.08
2023-04-15T21:16:57.980Z,22.20
2023-04-15T21:19:24.923Z,22.50
2023-04-15T21:21:51.770Z,23.10
2023-04-15T21:24:18.584Z,23.63
2023-04-15T21:26:45.633Z,24.05
2023-04-15T21:29:12.693Z,22.60
2023-04-15T21:31:41.036Z,22.95
2023-04-15T21:34:08.094Z,25.65
2023-04-15T21:36:35.057Z,24.05
2023-04-15T21:39:01.891Z,22.63
2023-04-15T21:41:28.786Z,22.60
2023-04-15T21:43:55.645Z,23.85
2023-04-15T21:46:25.698Z,22.27
2023-04-15T21:49:00.513Z,22.15
2023-04-15T21:51:27.904Z,21.38
2023-04-15T21:53:54.913Z,23.35
2023-04-15T21:56:24.396Z,23.48
2023-04-15T21:58:59.537Z,25.48
2023-04-15T22:01:26.935Z,21.73
2023-04-15T22:03:54.087Z,23.85
2023-04-15T22:06:21.681Z,24.55
2023-04-15T22:08:56.894Z,25.52
2023-04-15T22:11:28.235Z,24.10
2023-04-15T22:13:56.977Z,24.42
2023-04-15T22:16:28.427Z,26.17
2023-04-15T22:18:55.856Z,27.27
2023-04-15T22:21:23.015Z,25.45
2023-04-15T22:23:50.047Z,26.90
2023-04-15T22:26:17.055Z,25.15
2023-04-15T22:28:43.899Z,25.58
2023-04-15T22:31:10.875Z,25.05
2023-04-15T22:33:38.994Z,28.40
2023-04-15T22:36:06.106Z,26.60
2023-04-15T22:38:33.315Z,28.02
2023-04-15T22:41:00.150Z,26.77
2023-04-15T22:43:27.815Z,24.98
2023-04-15T22:45:55.363Z,26.27
2023-04-15T22:48:23.049Z,24.98
2023-04-15T22:50:50.320Z,24.58
2023-04-15T22:53:18.110Z,25.73
2023-04-15T22:55:49.189Z,24.83
2023-04-15T22:58:17.311Z,26.55
2023-04-15T23:00:44.533Z,26.08
2023-04-15T23:03:11.612Z,27.55
2023-04-15T23:05:40.213Z,26.50
2023-04-15T23:08:08.293Z,27.48
2023-04-15T23:10:35.203Z,28.52
2023-04-15T23:13:02.071Z,27.88
2023-04-15T23:15:28.920Z,28.65
2023-04-15T23:17:55.852Z,28.40
2023-04-15T23:20:22.720Z,29.25
2023-04-15T23:22:49.701Z,27.98
2023-04-15T23:25:16.860Z,29.55
2023-04-15T23:27:44.079Z,27.67
2023-04-15T23:30:11.240Z,29.42
2023-04-15T23:32:38.318Z,31.38
2023-04-15T23:35:06.177Z,27.80
2023-04-15T23:37:33.140Z,29.25
2023-04-15T23:40:00.174Z,28.08
2023-04-15T23:42:27.342Z,28.73
2023-04-15T23:44:54.820Z,28.30
2023-04-15T23:47:22.033Z,29.00
2023-04-15T23:49:48.907Z,29.02
2023-04-15T23:52:16.080Z,30.20
2023-04-15T23:54:43.001Z,29.83
2023-04-15T23:57:10.414Z,31.17
2023-04-15T23:59:37.482Z,30.08
